createdAt,value
2019-02-23T00:01:26.853Z,4.13
2019-02-23T00:03:56.628Z,1.30
2019-02-23T00:06:29.748Z,3.53
2019-02-23T00:08:52.891Z,2.87
2019-02-23T00:11:20.338Z,2.87
2019-02-23T00:13:53.143Z,1.87
2019-02-23T00:16:24.482Z,2.40
2019-02-23T00:18:53.344Z,1.83
2019-02-23T00:21:23.405Z,1.93
2019-02-23T00:23:50.694Z,10.20
2019-02-23T00:26:21.964Z,1.43
2019-02-23T00:28:50.924Z,1.40
2019-02-23T00:31:18.021Z,9.97
2019-02-23T00:33:48.059Z,3.87
2019-02-23T00:36:15.106Z,1.03
2019-02-23T00:38:42.180Z,3.07
2019-02-23T00:41:09.230Z,1.13
2019-02-23T00:43:36.283Z,2.00
2019-02-23T00:46:03.350Z,2.87
2019-02-23T00:48:30.414Z,2.90
2019-02-23T00:50:57.483Z,0.80
2019-02-23T00:53:24.635Z,4.10
2019-02-23T00:55:51.755Z,2.93
2019-02-23T00:58:18.889Z,2.53
2019-02-23T01:00:45.900Z,3.40
2019-02-23T01:03:12.962Z,1.10
2019-02-23T01:05:40.020Z,1.90
2019-02-23T01:08:07.079Z,1.23
2019-02-23T01:10:34.196Z,2.60
2019-02-23T01:13:01.263Z,3.90
2019-02-23T01:15:28.346Z,4.17
2019-02-23T01:17:55.427Z,3.07
2019-02-23T01:20:22.590Z,3.03
2019-02-23T01:22:52.700Z,2.80
2019-02-23T01:25:19.778Z,2.53
2019-02-23T01:27:46.872Z,1.13
2019-02-23T01:30:13.934Z,14.87
2019-02-23T01:35:04.582Z,5.43
2019-02-23T01:37:31.645Z,3.70
2019-02-23T01:39:58.715Z,2.20
2019-02-23T01:42:25.807Z,4.17
2019-02-23T01:44:52.856Z,2.70
2019-02-23T01:47:20.009Z,1.07
2019-02-23T01:49:47.073Z,1.47
2019-02-23T01:52:14.148Z,2.87
2019-02-23T01:54:41.243Z,2.23
2019-02-23T01:57:10.362Z,2.67
2019-02-23T01:59:37.582Z,1.57
2019-02-23T02:02:04.656Z,2.20
2019-02-23T02:04:31.713Z,2.40
2019-02-23T02:06:58.778Z,1.67
2019-02-23T02:09:25.839Z,3.20
2019-02-23T02:11:52.899Z,2.13
2019-02-23T02:14:21.877Z,2.90
2019-02-23T02:16:49.002Z,1.97
2019-02-23T02:19:16.098Z,5.00
2019-02-23T02:21:43.435Z,3.17
2019-02-23T02:24:10.497Z,5.57
2019-02-23T02:26:37.567Z,3.27
2019-02-23T02:29:04.630Z,5.50
2019-02-23T02:31:31.730Z,3.33
2019-02-23T02:34:09.762Z,3.70
2019-02-23T02:36:36.832Z,3.57
2019-02-23T02:39:10.088Z,2.30
2019-02-23T02:41:37.164Z,5.10
2019-02-23T02:44:04.230Z,3.37
2019-02-23T02:46:31.291Z,5.00
2019-02-23T02:48:58.357Z,4.57
2019-02-23T02:51:25.419Z,4.20
2019-02-23T02:53:52.479Z,4.70
2019-02-23T02:56:19.536Z,4.53
2019-02-23T02:58:46.596Z,3.27
2019-02-23T03:01:13.662Z,3.77
2019-02-23T03:03:40.730Z,3.97
2019-02-23T03:06:07.778Z,2.33
2019-02-23T03:08:34.841Z,4.40
2019-02-23T03:11:01.931Z,4.63
2019-02-23T03:13:29.000Z,3.00
2019-02-23T03:15:56.052Z,2.60
2019-02-23T03:18:23.129Z,3.17
2019-02-23T03:20:50.186Z,3.10
2019-02-23T03:23:17.242Z,3.43
2019-02-23T03:25:44.307Z,4.57
2019-02-23T03:28:13.391Z,5.00
2019-02-23T03:30:40.456Z,1.97
2019-02-23T03:33:07.511Z,4.03
2019-02-23T03:35:34.577Z,4.10
2019-02-23T03:38:01.645Z,4.13
2019-02-23T03:40:28.700Z,5.33
2019-02-23T03:42:55.762Z,3.60
2019-02-23T03:45:22.816Z,4.33
2019-02-23T03:47:49.867Z,5.90
2019-02-23T03:50:16.929Z,7.13
2019-02-23T03:52:43.993Z,5.83
2019-02-23T03:55:11.179Z,10.10
2019-02-23T03:57:38.236Z,5.93
2019-02-23T04:00:06.501Z,5.83
2019-02-23T04:02:33.556Z,5.53
2019-02-23T04:05:00.624Z,6.10
2019-02-23T04:07:27.683Z,6.57
2019-02-23T04:09:54.736Z,10.80
2019-02-23T04:12:21.806Z,8.70
2019-02-23T04:14:48.870Z,8.23
2019-02-23T04:17:15.943Z,11.00
2019-02-23T04:19:43.003Z,10.00
2019-02-23T04:22:10.064Z,7.57
2019-02-23T04:24:37.118Z,11.13
2019-02-23T04:27:04.180Z,10.00
2019-02-23T04:29:31.236Z,12.83
2019-02-23T04:31:58.295Z,8.93
2019-02-23T04:34:25.359Z,9.80
2019-02-23T04:36:52.420Z,6.70
2019-02-23T04:39:19.513Z,8.30
2019-02-23T04:41:46.568Z,10.73
2019-02-23T04:44:13.632Z,11.73
2019-02-23T04:46:40.687Z,9.93
2019-02-23T04:49:07.759Z,9.03
2019-02-23T04:51:34.849Z,8.30
2019-02-23T04:54:01.908Z,14.20
2019-02-23T04:56:29.016Z,11.27
2019-02-23T04:58:56.111Z,9.70
2019-02-23T05:01:23.174Z,8.97
2019-02-23T05:03:50.232Z,7.17
2019-02-23T05:06:17.300Z,10.27
2019-02-23T05:08:44.531Z,10.10
2019-02-23T05:11:11.650Z,11.80
2019-02-23T05:13:38.677Z,11.87
2019-02-23T05:16:05.736Z,9.57
2019-02-23T05:18:32.789Z,13.90
2019-02-23T05:20:59.849Z,13.00
2019-02-23T05:23:26.908Z,17.83
2019-02-23T05:25:53.966Z,7.97
2019-02-23T05:28:21.020Z,13.67
2019-02-23T05:30:48.083Z,9.43
2019-02-23T05:33:15.205Z,14.93
2019-02-23T05:35:42.258Z,13.60
2019-02-23T05:38:09.321Z,17.40
2019-02-23T05:40:36.382Z,10.23
2019-02-23T05:43:03.459Z,12.57
2019-02-23T05:45:30.508Z,12.53
2019-02-23T05:47:57.585Z,14.50
2019-02-23T05:50:24.654Z,10.37
2019-02-23T05:52:51.733Z,16.47
2019-02-23T05:55:18.821Z,13.13
2019-02-23T05:57:45.911Z,18.80
2019-02-23T06:00:13.304Z,9.37
2019-02-23T06:02:40.376Z,8.70
2019-02-23T06:05:07.921Z,16.27
2019-02-23T06:07:34.972Z,15.63
2019-02-23T06:10:02.452Z,13.20
2019-02-23T06:12:29.597Z,13.63
2019-02-23T06:14:56.652Z,15.80
2019-02-23T06:17:23.719Z,16.30
2019-02-23T06:19:50.783Z,13.97
2019-02-23T06:22:17.877Z,21.60
2019-02-23T06:24:44.971Z,10.30
2019-02-23T06:27:12.077Z,12.37
2019-02-23T06:29:39.181Z,14.23
2019-02-23T06:32:06.241Z,12.80
2019-02-23T06:34:33.299Z,12.37
2019-02-23T06:37:00.395Z,17.53
2019-02-23T06:39:27.497Z,12.57
2019-02-23T06:41:54.606Z,13.93
2019-02-23T06:44:21.665Z,14.97
2019-02-23T06:46:48.759Z,15.30
2019-02-23T06:49:15.817Z,13.03
2019-02-23T06:51:42.922Z,11.47
2019-02-23T06:54:10.046Z,11.97
2019-02-23T06:56:37.110Z,11.10
2019-02-23T06:59:04.221Z,11.13
2019-02-23T07:01:31.288Z,11.60
2019-02-23T07:03:58.404Z,11.47
2019-02-23T07:06:25.491Z,12.33
2019-02-23T07:08:52.579Z,13.20
2019-02-23T07:11:19.666Z,10.93
2019-02-23T07:13:46.725Z,12.23
2019-02-23T07:16:13.770Z,8.80
2019-02-23T07:18:40.847Z,6.80
2019-02-23T07:21:07.900Z,10.73
2019-02-23T07:23:34.955Z,6.47
2019-02-23T07:26:02.035Z,8.80
2019-02-23T07:28:29.096Z,11.47
2019-02-23T07:30:56.151Z,7.33
2019-02-23T07:33:32.377Z,7.97
2019-02-23T07:35:52.282Z,8.27
2019-02-23T07:38:19.344Z,7.83
2019-02-23T07:40:46.403Z,9.40
2019-02-23T07:43:13.454Z,7.37
2019-02-23T07:45:40.560Z,6.07
2019-02-23T07:48:07.661Z,5.20
2019-02-23T07:50:34.727Z,5.33
2019-02-23T07:53:01.789Z,5.60
2019-02-23T07:55:28.888Z,6.27
2019-02-23T07:57:55.951Z,6.37
2019-02-23T08:00:23.017Z,5.80
2019-02-23T08:02:51.197Z,6.97
2019-02-23T08:05:18.279Z,5.70
2019-02-23T08:07:45.519Z,6.30
2019-02-23T08:10:12.623Z,7.67
2019-02-23T08:12:39.741Z,5.80
2019-02-23T08:15:07.338Z,6.80
2019-02-23T08:17:34.562Z,6.67
2019-02-23T08:20:01.803Z,7.13
2019-02-23T08:22:37.059Z,4.10
2019-02-23T08:24:59.249Z,7.33
2019-02-23T08:27:26.535Z,5.83
2019-02-23T08:29:55.704Z,4.93
2019-02-23T08:32:22.798Z,7.07
2019-02-23T08:34:49.859Z,4.90
2019-02-23T08:37:17.315Z,6.87
2019-02-23T08:39:44.394Z,6.53
2019-02-23T08:42:11.559Z,4.70
2019-02-23T08:44:39.981Z,5.20
2019-02-23T08:47:07.080Z,5.80
2019-02-23T08:49:34.140Z,5.80
2019-02-23T08:52:01.224Z,8.23
2019-02-23T08:54:28.320Z,4.17
2019-02-23T08:56:55.479Z,4.53
2019-02-23T08:59:22.571Z,3.90
2019-02-23T09:01:49.637Z,5.93
2019-02-23T09:04:16.724Z,5.20
2019-02-23T09:06:43.807Z,3.90
2019-02-23T09:09:10.885Z,6.07
2019-02-23T09:11:37.965Z,6.97
2019-02-23T09:14:05.034Z,7.03
2019-02-23T09:16:32.171Z,6.67
2019-02-23T09:18:59.218Z,5.77
2019-02-23T09:21:26.346Z,6.43
2019-02-23T09:23:53.424Z,10.87
2019-02-23T09:26:20.489Z,5.60
2019-02-23T09:28:47.552Z,4.50
2019-02-23T09:31:14.652Z,9.03
2019-02-23T09:33:41.705Z,3.90
2019-02-23T09:36:08.859Z,5.83
2019-02-23T09:38:35.941Z,8.70
2019-02-23T09:41:03.010Z,3.73
2019-02-23T09:43:30.124Z,6.33
2019-02-23T09:45:57.187Z,5.40
2019-02-23T09:48:24.244Z,4.90
2019-02-23T09:50:51.321Z,8.43
2019-02-23T09:53:18.397Z,5.67
2019-02-23T09:55:45.462Z,5.23
2019-02-23T09:58:12.539Z,3.00
2019-02-23T10:00:39.619Z,5.77
2019-02-23T10:03:06.696Z,5.37
2019-02-23T10:05:33.762Z,5.30
2019-02-23T10:08:00.814Z,5.33
2019-02-23T10:10:27.911Z,3.37
2019-02-23T10:12:54.966Z,5.53
2019-02-23T10:15:22.013Z,7.83
2019-02-23T10:17:49.096Z,3.40
2019-02-23T10:20:16.178Z,5.57
2019-02-23T10:22:43.246Z,4.10
2019-02-23T10:25:10.315Z,4.23
2019-02-23T10:27:37.454Z,4.97
2019-02-23T10:30:05.162Z,5.57
2019-02-23T10:32:32.261Z,3.53
2019-02-23T10:34:59.383Z,5.53
2019-02-23T10:37:26.422Z,6.33
2019-02-23T10:39:53.500Z,4.33
2019-02-23T10:42:20.573Z,10.47
2019-02-23T10:44:47.676Z,6.20
2019-02-23T10:47:14.819Z,5.53
2019-02-23T10:49:41.962Z,12.67
2019-02-23T10:52:09.059Z,7.63
2019-02-23T10:54:36.110Z,4.10
2019-02-23T10:57:03.393Z,8.90
2019-02-23T10:59:30.507Z,4.70
2019-02-23T11:01:57.595Z,5.07
2019-02-23T11:04:24.672Z,6.20
2019-02-23T11:06:51.737Z,4.93
2019-02-23T11:09:27.224Z,4.37
2019-02-23T11:11:54.337Z,5.27
2019-02-23T11:14:21.404Z,7.23
2019-02-23T11:16:48.737Z,6.37
2019-02-23T11:19:15.744Z,4.80
2019-02-23T11:21:42.856Z,5.73
2019-02-23T11:24:10.052Z,7.30
2019-02-23T11:26:38.258Z,5.07
2019-02-23T11:29:05.406Z,16.30
2019-02-23T11:31:32.479Z,6.00
2019-02-23T11:33:59.733Z,4.20
2019-02-23T11:36:26.816Z,6.50
2019-02-23T11:38:56.905Z,4.07
2019-02-23T11:41:24.068Z,8.57
2019-02-23T11:43:56.603Z,4.47
2019-02-23T11:46:25.885Z,7.63
2019-02-23T11:48:53.116Z,7.07
2019-02-23T11:51:27.228Z,4.63
2019-02-23T11:54:02.873Z,6.20
2019-02-23T11:56:32.643Z,4.87
2019-02-23T11:59:00.536Z,4.07
2019-02-23T12:01:35.720Z,10.70
2019-02-23T12:04:10.080Z,4.17
2019-02-23T12:06:42.521Z,7.63
2019-02-23T12:09:12.417Z,6.20
2019-02-23T12:11:46.156Z,6.77
2019-02-23T12:14:18.326Z,7.40
2019-02-23T12:16:45.480Z,8.80
2019-02-23T12:19:18.317Z,5.87
2019-02-23T12:21:54.981Z,14.10
2019-02-23T12:24:24.849Z,3.87
2019-02-23T12:26:53.805Z,7.00
2019-02-23T12:29:20.871Z,17.33
2019-02-23T12:31:47.932Z,6.87
2019-02-23T12:34:14.980Z,7.07
2019-02-23T12:36:42.117Z,4.83
2019-02-23T12:39:09.147Z,7.63
2019-02-23T12:41:38.943Z,8.00
2019-02-23T12:44:06.029Z,8.93
2019-02-23T12:46:36.638Z,5.53
2019-02-23T12:49:08.460Z,6.10
2019-02-23T12:51:38.655Z,7.27
2019-02-23T12:54:17.006Z,7.60
2019-02-23T12:56:48.607Z,5.93
2019-02-23T12:59:18.636Z,5.23
2019-02-23T13:01:54.162Z,7.30
2019-02-23T13:04:29.956Z,5.23
2019-02-23T13:07:02.210Z,6.60
2019-02-23T13:09:36.449Z,6.07
2019-02-23T13:12:47.262Z,8.30
2019-02-23T13:15:28.496Z,6.10
2019-02-23T13:18:33.026Z,6.13
2019-02-23T13:21:35.602Z,5.07
2019-02-23T13:24:30.352Z,9.70
2019-02-23T13:27:24.682Z,8.63
2019-02-23T13:30:23.972Z,8.40
2019-02-23T13:33:22.105Z,5.17
2019-02-23T13:36:07.194Z,5.80
2019-02-23T13:38:55.065Z,9.27
2019-02-23T13:42:08.625Z,11.27
2019-02-23T13:45:17.198Z,7.73
2019-02-23T13:48:38.165Z,8.23
2019-02-23T13:51:46.350Z,8.73
2019-02-23T13:54:47.728Z,10.50
2019-02-23T13:58:02.715Z,8.57
2019-02-23T14:01:26.430Z,6.80
2019-02-23T14:04:29.000Z,6.27
2019-02-23T14:07:34.233Z,7.47
2019-02-23T14:10:47.384Z,10.87
2019-02-23T14:13:58.205Z,5.37
2019-02-23T14:17:01.683Z,6.77
2019-02-23T14:20:05.012Z,10.20
2019-02-23T14:22:59.439Z,12.73
2019-02-23T14:26:07.559Z,4.90
2019-02-23T14:29:25.399Z,7.00
2019-02-23T14:32:25.452Z,7.17
2019-02-23T14:35:24.521Z,5.40
2019-02-23T14:38:42.247Z,6.30
2019-02-23T14:41:45.072Z,7.53
2019-02-23T14:44:58.897Z,6.23
2019-02-23T14:47:55.510Z,9.30
2019-02-23T14:50:41.613Z,7.50
2019-02-23T14:53:56.718Z,7.67
2019-02-23T14:57:01.801Z,4.93
2019-02-23T14:59:59.558Z,8.17
2019-02-23T15:03:26.736Z,4.97
2019-02-23T15:06:28.485Z,4.97
2019-02-23T15:09:39.116Z,8.13
2019-02-23T15:12:27.848Z,11.07
2019-02-23T15:15:42.409Z,11.53
2019-02-23T15:18:54.286Z,8.47
2019-02-23T15:21:53.111Z,7.20
2019-02-23T15:24:53.018Z,5.73
2019-02-23T15:27:57.141Z,7.40
2019-02-23T15:30:51.657Z,6.53
2019-02-23T15:34:07.407Z,5.97
2019-02-23T15:37:00.955Z,7.00
2019-02-23T15:40:30.725Z,9.90
2019-02-23T15:43:25.461Z,7.10
2019-02-23T15:46:19.574Z,11.47
2019-02-23T15:49:26.833Z,12.00
2019-02-23T15:51:58.518Z,11.07
2019-02-23T15:54:34.170Z,7.27
2019-02-23T15:57:03.750Z,8.23
2019-02-23T15:59:31.000Z,12.53
2019-02-23T16:01:58.132Z,12.33
2019-02-23T16:04:31.228Z,18.10
2019-02-23T16:07:01.091Z,13.63
2019-02-23T16:09:28.547Z,14.43
2019-02-23T16:11:55.857Z,10.47
2019-02-23T16:14:25.136Z,18.40
2019-02-23T16:16:53.851Z,12.60
2019-02-23T16:19:23.420Z,16.00
2019-02-23T16:25:21.850Z,14.47
2019-02-23T16:27:51.487Z,13.80
2019-02-23T16:30:19.098Z,14.53
2019-02-23T16:33:03.089Z,14.73
2019-02-23T16:35:42.092Z,12.50
2019-02-23T16:38:10.339Z,13.90
2019-02-23T16:40:38.179Z,13.03
2019-02-23T16:43:05.333Z,16.87
2019-02-23T16:45:35.171Z,19.20
2019-02-23T16:48:02.391Z,16.23
2019-02-23T16:50:29.686Z,15.93
2019-02-23T16:52:59.947Z,15.43
2019-02-23T16:55:28.220Z,14.13
2019-02-23T16:57:57.578Z,12.43
2019-02-23T17:00:24.618Z,14.17
2019-02-23T17:02:51.688Z,20.67
2019-02-23T17:05:18.755Z,13.57
2019-02-23T17:07:45.827Z,18.63
2019-02-23T17:10:12.912Z,15.57
2019-02-23T17:12:39.987Z,14.70
2019-02-23T17:15:10.372Z,14.50
2019-02-23T17:17:36.181Z,13.40
2019-02-23T17:20:03.435Z,16.57
2019-02-23T17:22:30.483Z,18.83
2019-02-23T17:24:57.555Z,14.80
2019-02-23T17:27:35.917Z,14.77
2019-02-23T17:29:53.663Z,17.73
2019-02-23T17:32:20.750Z,17.90
2019-02-23T17:34:47.999Z,15.90
2019-02-23T17:37:15.095Z,17.97
2019-02-23T17:39:42.185Z,14.90
2019-02-23T17:42:09.264Z,16.07
2019-02-23T17:44:36.342Z,13.00
2019-02-23T17:47:03.396Z,17.63
2019-02-23T17:49:30.471Z,17.20
2019-02-23T17:51:57.574Z,17.00
2019-02-23T17:54:24.626Z,15.10
2019-02-23T17:56:51.678Z,18.30
2019-02-23T17:59:18.771Z,13.23
2019-02-23T18:01:46.056Z,18.20
2019-02-23T18:04:13.140Z,18.90
2019-02-23T18:06:40.285Z,17.27
2019-02-23T18:09:07.373Z,17.27
2019-02-23T18:11:34.608Z,14.97
2019-02-23T18:14:02.101Z,16.40
2019-02-23T18:16:29.610Z,16.00
2019-02-23T18:18:57.602Z,15.10
2019-02-23T18:21:24.796Z,11.17
2019-02-23T18:23:51.885Z,16.20
2019-02-23T18:26:21.151Z,19.90
2019-02-23T18:28:48.074Z,19.40
2019-02-23T18:31:15.137Z,15.37
2019-02-23T18:33:42.198Z,17.70
2019-02-23T18:36:09.266Z,17.57
2019-02-23T18:38:36.326Z,18.13
2019-02-23T18:41:03.412Z,18.73
2019-02-23T18:43:30.458Z,18.23
2019-02-23T18:45:57.626Z,19.50
2019-02-23T18:48:24.697Z,19.50
2019-02-23T18:50:51.804Z,16.60
2019-02-23T18:53:18.908Z,18.50
2019-02-23T18:55:45.993Z,14.73
2019-02-23T18:58:13.053Z,28.40
2019-02-23T19:00:40.119Z,18.17
2019-02-23T19:03:07.204Z,41.33
2019-02-23T19:05:34.290Z,83.30
2019-02-23T19:08:01.433Z,108.23
2019-02-23T19:10:28.612Z,57.63
2019-02-23T19:12:55.671Z,26.60
2019-02-23T19:15:23.837Z,15.83
2019-02-23T19:17:50.904Z,18.07
2019-02-23T19:20:18.003Z,16.63
2019-02-23T19:22:45.086Z,19.20
2019-02-23T19:25:12.159Z,14.80
2019-02-23T19:27:39.260Z,16.53
2019-02-23T19:30:08.116Z,15.93
2019-02-23T19:32:35.186Z,16.97
2019-02-23T19:35:02.275Z,16.70
2019-02-23T19:37:29.331Z,15.43
2019-02-23T19:39:56.383Z,13.00
2019-02-23T19:42:23.489Z,15.83
2019-02-23T19:44:51.253Z,17.00
2019-02-23T19:47:22.071Z,13.33
2019-02-23T19:49:51.441Z,16.80
2019-02-23T19:52:18.500Z,17.20
2019-02-23T19:54:45.646Z,16.30
2019-02-23T19:57:12.705Z,17.80
2019-02-23T19:59:39.806Z,16.67
2019-02-23T20:02:09.926Z,14.17
2019-02-23T20:04:37.218Z,17.10
2019-02-23T20:07:07.430Z,15.33
2019-02-23T20:09:34.580Z,15.90
2019-02-23T20:12:05.040Z,14.83
2019-02-23T20:14:32.259Z,15.53
2019-02-23T20:17:06.455Z,14.97
2019-02-23T20:19:33.703Z,16.17
2019-02-23T20:22:08.151Z,14.50
2019-02-23T20:24:37.292Z,13.37
2019-02-23T20:27:08.613Z,17.30
2019-02-23T20:29:37.458Z,15.17
2019-02-23T20:32:04.662Z,14.50
2019-02-23T20:34:31.858Z,15.07
2019-02-23T20:37:03.568Z,14.93
2019-02-23T20:39:28.225Z,15.43
2019-02-23T20:41:55.347Z,16.10
2019-02-23T20:44:28.933Z,13.17
2019-02-23T20:46:58.367Z,14.63
2019-02-23T20:49:31.216Z,16.67
2019-02-23T20:51:59.776Z,13.20
2019-02-23T20:54:36.553Z,13.17
2019-02-23T20:57:13.668Z,14.73
2019-02-23T20:59:37.945Z,13.43
2019-02-23T21:02:12.765Z,17.37
2019-02-23T21:04:40.794Z,15.40
2019-02-23T21:07:08.045Z,13.97
2019-02-23T21:09:37.480Z,20.13
2019-02-23T21:12:10.229Z,15.13
2019-02-23T21:14:44.050Z,12.07
2019-02-23T21:17:13.652Z,12.07
2019-02-23T21:19:43.592Z,12.70
2019-02-23T21:22:15.243Z,12.93
2019-02-23T21:24:47.379Z,20.00
2019-02-23T21:27:21.915Z,14.40
2019-02-23T21:29:49.051Z,15.73
2019-02-23T21:32:16.132Z,17.43
2019-02-23T21:34:43.209Z,17.00
2019-02-23T21:37:10.269Z,19.97
2019-02-23T21:39:37.388Z,15.90
2019-02-23T21:42:04.472Z,19.63
2019-02-23T21:44:31.573Z,19.60
2019-02-23T21:46:58.870Z,22.07
2019-02-23T21:49:25.942Z,16.73
2019-02-23T21:51:53.059Z,14.50
2019-02-23T21:54:20.157Z,17.03
2019-02-23T21:56:47.225Z,19.97
2019-02-23T21:59:14.366Z,18.23
2019-02-23T22:01:41.521Z,14.87
2019-02-23T22:04:08.618Z,15.43
2019-02-23T22:06:35.793Z,19.43
2019-02-23T22:09:03.881Z,19.03
2019-02-23T22:11:30.948Z,17.50
2019-02-23T22:13:58.015Z,18.47
2019-02-23T22:16:25.109Z,20.03
2019-02-23T22:18:52.170Z,18.37
2019-02-23T22:21:19.258Z,19.60
2019-02-23T22:23:46.407Z,22.37
2019-02-23T22:26:13.497Z,18.83
2019-02-23T22:28:40.579Z,15.57
2019-02-23T22:31:07.647Z,16.63
2019-02-23T22:33:34.672Z,16.33
2019-02-23T22:36:01.767Z,16.37
2019-02-23T22:38:28.840Z,16.20
2019-02-23T22:40:55.899Z,17.03
2019-02-23T22:43:22.975Z,18.43
2019-02-23T22:45:50.055Z,15.80
2019-02-23T22:48:17.360Z,16.83
2019-02-23T22:50:44.440Z,17.90
2019-02-23T22:53:11.492Z,13.43
2019-02-23T22:55:38.556Z,18.93
2019-02-23T22:58:05.663Z,18.57
2019-02-23T23:01:07.614Z,14.97
2019-02-23T23:03:43.804Z,19.83
2019-02-23T23:06:12.399Z,20.33
2019-02-23T23:08:41.035Z,22.67
2019-02-23T23:11:08.544Z,18.03
2019-02-23T23:13:45.844Z,19.57
2019-02-23T23:16:15.778Z,21.80
2019-02-23T23:18:43.099Z,21.90
2019-02-23T23:21:13.854Z,20.10
2019-02-23T23:23:42.005Z,22.07
2019-02-23T23:26:11.647Z,22.83
2019-02-23T23:28:41.785Z,17.53
2019-02-23T23:31:11.505Z,18.47
2019-02-23T23:33:38.697Z,19.43
2019-02-23T23:36:05.935Z,23.17
2019-02-23T23:38:36.303Z,20.50
2019-02-23T23:41:06.063Z,16.90
2019-02-23T23:43:35.577Z,18.40
2019-02-23T23:46:02.720Z,17.20
2019-02-23T23:48:31.698Z,17.93
2019-02-23T23:51:02.512Z,22.37
2019-02-23T23:53:29.674Z,17.83
2019-02-23T23:55:56.865Z,19.00
2019-02-23T23:58:26.263Z,22.20
